createdAt,value
2018-11-04T00:00:45.184Z,0.00
2018-11-04T00:01:45.214Z,0.00
2018-11-04T00:02:45.115Z,0.09
2018-11-04T00:03:45.079Z,0.00
2018-11-04T00:04:45.049Z,0.00
2018-11-04T00:05:45.014Z,0.00
2018-11-04T00:06:44.977Z,0.00
2018-11-04T00:07:44.975Z,0.19
2018-11-04T00:08:44.911Z,0.09
2018-11-04T00:09:44.877Z,0.19
2018-11-04T00:10:44.842Z,0.28
2018-11-04T00:11:44.806Z,0.00
2018-11-04T00:12:44.774Z,0.19
2018-11-04T00:13:44.739Z,0.19
2018-11-04T00:14:44.706Z,0.09
2018-11-04T00:15:44.670Z,0.28
2018-11-04T00:16:44.637Z,0.28
2018-11-04T00:17:44.602Z,0.28
2018-11-04T00:18:44.567Z,0.09
2018-11-04T00:19:44.534Z,0.38
2018-11-04T00:20:44.498Z,0.28
2018-11-04T00:21:44.464Z,0.57
2018-11-04T00:22:44.437Z,0.47
2018-11-04T00:23:44.395Z,0.85
2018-11-04T00:24:44.363Z,0.95
2018-11-04T00:25:44.328Z,0.85
2018-11-04T00:26:44.341Z,1.23
2018-11-04T00:27:44.259Z,0.85
2018-11-04T00:28:44.225Z,1.04
2018-11-04T00:29:44.237Z,0.95
2018-11-04T00:30:44.161Z,1.23
2018-11-04T00:31:44.121Z,1.14
2018-11-04T00:32:44.094Z,1.32
2018-11-04T00:33:44.053Z,1.23
2018-11-04T00:34:44.069Z,1.51
2018-11-04T00:35:43.985Z,0.85
2018-11-04T00:36:43.950Z,0.76
2018-11-04T00:37:43.918Z,0.66
2018-11-04T00:38:43.882Z,0.66
2018-11-04T00:39:43.846Z,0.76
2018-11-04T00:40:43.814Z,0.57
2018-11-04T00:41:43.779Z,0.76
2018-11-04T00:42:43.744Z,0.66
2018-11-04T00:43:43.709Z,0.66
2018-11-04T00:44:43.676Z,0.85
2018-11-04T00:45:43.644Z,0.85
2018-11-04T00:46:43.607Z,0.47
2018-11-04T00:47:43.573Z,0.47
2018-11-04T00:48:43.538Z,0.28
2018-11-04T00:49:43.505Z,0.09
2018-11-04T00:50:43.469Z,0.19
2018-11-04T00:51:43.434Z,0.00
2018-11-04T00:52:43.403Z,0.00
2018-11-04T00:53:43.371Z,0.00
2018-11-04T00:54:43.333Z,0.00
2018-11-04T00:55:43.299Z,0.00
2018-11-04T00:56:43.263Z,0.00
2018-11-04T00:57:43.228Z,0.00
2018-11-04T00:58:43.195Z,0.00
2018-11-04T00:59:43.160Z,0.00
2018-11-04T01:00:43.127Z,0.00
2018-11-04T01:01:43.093Z,0.00
2018-11-04T01:02:43.059Z,0.00
2018-11-04T01:03:43.024Z,0.00
2018-11-04T01:04:42.989Z,0.00
2018-11-04T01:05:42.955Z,0.00
2018-11-04T01:06:42.919Z,0.00
2018-11-04T01:07:42.886Z,0.00
2018-11-04T01:08:42.853Z,0.00
2018-11-04T01:09:42.817Z,0.00
2018-11-04T01:10:42.782Z,0.00
2018-11-04T01:11:42.748Z,0.00
2018-11-04T01:12:42.713Z,0.00
2018-11-04T01:13:42.681Z,0.19
2018-11-04T01:14:42.645Z,0.09
2018-11-04T01:15:42.611Z,0.00
2018-11-04T01:16:42.576Z,0.19
2018-11-04T01:17:42.543Z,0.00
2018-11-04T01:18:42.508Z,0.09
2018-11-04T01:19:42.474Z,0.28
2018-11-04T01:20:42.440Z,0.38
2018-11-04T01:21:42.404Z,0.28
2018-11-04T01:22:42.378Z,0.38
2018-11-04T01:23:42.336Z,0.38
2018-11-04T01:24:43.076Z,0.09
2018-11-04T01:25:42.267Z,0.28
2018-11-04T01:26:42.232Z,0.47
2018-11-04T01:27:42.198Z,0.19
2018-11-04T01:28:42.164Z,0.19
2018-11-04T01:29:42.130Z,0.38
2018-11-04T01:30:42.094Z,0.00
2018-11-04T01:31:42.060Z,0.28
2018-11-04T01:32:42.033Z,0.19
2018-11-04T01:33:41.990Z,0.09
2018-11-04T01:34:41.958Z,0.28
2018-11-04T01:35:41.923Z,0.28
2018-11-04T01:36:41.887Z,0.09
2018-11-04T01:37:41.853Z,0.09
2018-11-04T01:38:41.818Z,0.19
2018-11-04T01:39:41.785Z,0.00
2018-11-04T01:40:41.750Z,0.19
2018-11-04T01:41:41.716Z,0.09
2018-11-04T01:42:41.684Z,0.09
2018-11-04T01:43:41.646Z,0.09
2018-11-04T01:44:41.613Z,0.09
2018-11-04T01:45:41.576Z,0.28
2018-11-04T01:46:41.543Z,0.28
2018-11-04T01:47:41.508Z,0.19
2018-11-04T01:48:41.473Z,0.28
2018-11-04T01:49:41.439Z,0.28
2018-11-04T01:50:41.402Z,0.66
2018-11-04T01:51:41.371Z,0.47
2018-11-04T01:52:41.340Z,0.57
2018-11-04T01:53:41.301Z,0.66
2018-11-04T01:54:41.266Z,0.28
2018-11-04T01:55:41.233Z,0.38
2018-11-04T01:56:41.196Z,0.66
2018-11-04T01:57:41.163Z,0.85
2018-11-04T01:58:41.131Z,0.66
2018-11-04T01:59:41.094Z,0.85
2018-11-04T02:00:41.059Z,0.76
2018-11-04T02:01:41.026Z,0.66
2018-11-04T02:02:40.990Z,0.76
2018-11-04T02:03:40.956Z,0.85
2018-11-04T02:04:40.921Z,0.76
2018-11-04T02:05:40.888Z,0.85
2018-11-04T02:06:40.851Z,0.76
2018-11-04T02:07:40.818Z,0.95
2018-11-04T02:08:40.784Z,0.85
2018-11-04T02:09:40.749Z,0.95
2018-11-04T02:10:40.715Z,1.14
2018-11-04T02:11:40.686Z,1.04
2018-11-04T02:12:40.646Z,1.23
2018-11-04T02:13:40.610Z,1.14
2018-11-04T02:14:40.575Z,1.23
2018-11-04T02:15:40.542Z,0.95
2018-11-04T02:16:40.509Z,0.85
2018-11-04T02:17:40.474Z,0.95
2018-11-04T02:18:40.439Z,0.76
2018-11-04T02:19:40.402Z,0.95
2018-11-04T02:20:40.368Z,0.95
2018-11-04T02:21:40.335Z,0.76
2018-11-04T02:22:40.301Z,0.95
2018-11-04T02:23:40.266Z,0.85
2018-11-04T02:24:40.232Z,0.66
2018-11-04T02:25:40.198Z,0.85
2018-11-04T02:26:40.163Z,0.66
2018-11-04T02:27:40.129Z,0.47
2018-11-04T02:28:40.095Z,0.57
2018-11-04T02:29:40.582Z,0.47
2018-11-04T02:30:40.024Z,0.66
2018-11-04T02:31:39.990Z,0.57
2018-11-04T02:32:39.957Z,0.57
2018-11-04T02:33:39.919Z,0.76
2018-11-04T02:34:39.889Z,0.95
2018-11-04T02:35:39.854Z,0.95
2018-11-04T02:36:39.816Z,0.47
2018-11-04T02:37:39.783Z,0.85
2018-11-04T02:38:39.748Z,0.95
2018-11-04T02:39:39.713Z,0.76
2018-11-04T02:40:39.679Z,0.57
2018-11-04T02:41:39.649Z,0.95
2018-11-04T02:42:39.607Z,0.85
2018-11-04T02:43:39.575Z,0.95
2018-11-04T02:44:39.542Z,1.32
2018-11-04T02:45:39.510Z,1.32
2018-11-04T02:46:39.478Z,1.70
2018-11-04T02:47:39.439Z,1.89
2018-11-04T02:48:39.402Z,1.89
2018-11-04T02:49:39.368Z,2.46
2018-11-04T02:50:39.334Z,2.46
2018-11-04T02:51:39.304Z,2.37
2018-11-04T02:52:39.267Z,2.18
2018-11-04T02:53:39.234Z,2.08
2018-11-04T02:54:39.207Z,2.08
2018-11-04T02:55:39.163Z,2.46
2018-11-04T02:56:39.128Z,2.27
2018-11-04T02:57:39.094Z,2.37
2018-11-04T02:58:39.062Z,2.08
2018-11-04T02:59:39.022Z,1.98
2018-11-04T03:00:38.989Z,1.70
2018-11-04T03:01:38.984Z,2.08
2018-11-04T03:02:38.920Z,1.89
2018-11-04T03:03:38.888Z,1.51
2018-11-04T03:04:38.854Z,1.32
2018-11-04T03:05:38.818Z,1.32
2018-11-04T03:06:38.785Z,1.42
2018-11-04T03:07:38.751Z,1.61
2018-11-04T03:08:38.715Z,1.42
2018-11-04T03:09:38.683Z,1.89
2018-11-04T03:10:38.647Z,2.37
2018-11-04T03:11:38.614Z,1.98
2018-11-04T03:12:38.577Z,2.37
2018-11-04T03:13:38.546Z,2.65
2018-11-04T03:14:38.509Z,2.37
2018-11-04T03:15:38.475Z,2.46
2018-11-04T03:16:38.441Z,3.13
2018-11-04T03:17:38.408Z,3.31
2018-11-04T03:18:38.373Z,3.60
2018-11-04T03:19:38.340Z,4.26
2018-11-04T03:20:38.304Z,5.02
2018-11-04T03:21:38.270Z,4.93
2018-11-04T03:22:38.238Z,5.78
2018-11-04T03:23:38.202Z,6.35
2018-11-04T03:24:38.195Z,6.54
2018-11-04T03:25:38.134Z,7.01
2018-11-04T03:26:38.101Z,7.01
2018-11-04T03:27:38.066Z,6.73
2018-11-04T03:28:38.032Z,6.73
2018-11-04T03:29:37.998Z,6.16
2018-11-04T03:30:37.964Z,5.78
2018-11-04T03:31:37.931Z,5.78
2018-11-04T03:32:37.906Z,5.30
2018-11-04T03:33:37.862Z,5.78
2018-11-04T03:34:37.827Z,5.68
2018-11-04T03:35:37.794Z,5.68
2018-11-04T03:36:37.760Z,5.97
2018-11-04T03:37:37.722Z,5.68
2018-11-04T03:38:37.691Z,5.68
2018-11-04T03:39:37.661Z,5.78
2018-11-04T03:40:37.624Z,5.68
2018-11-04T03:41:37.590Z,6.16
2018-11-04T03:42:37.556Z,6.26
2018-11-04T03:43:37.522Z,6.26
2018-11-04T03:44:37.488Z,5.97
2018-11-04T03:45:37.455Z,6.07
2018-11-04T03:46:37.420Z,7.01
2018-11-04T03:47:37.388Z,6.82
2018-11-04T03:48:37.354Z,7.40
2018-11-04T03:49:37.319Z,7.97
2018-11-04T03:50:37.285Z,8.53
2018-11-04T03:51:37.252Z,9.48
2018-11-04T03:52:37.220Z,10.05
2018-11-04T03:53:37.186Z,11.00
2018-11-04T03:54:37.152Z,11.10
2018-11-04T03:55:37.119Z,11.29
2018-11-04T03:56:37.085Z,11.00
2018-11-04T03:57:37.053Z,11.85
2018-11-04T03:58:37.018Z,12.24
2018-11-04T03:59:36.984Z,12.52
2018-11-04T04:00:36.952Z,13.85
2018-11-04T04:01:36.918Z,14.23
2018-11-04T04:02:36.883Z,14.51
2018-11-04T04:03:36.851Z,14.89
2018-11-04T04:04:36.819Z,14.80
2018-11-04T04:05:36.785Z,15.28
2018-11-04T04:06:36.756Z,16.13
2018-11-04T04:07:36.719Z,16.79
2018-11-04T04:08:36.688Z,17.55
2018-11-04T04:09:36.654Z,18.13
2018-11-04T04:10:36.623Z,18.41
2018-11-04T04:11:36.587Z,18.60
2018-11-04T04:12:36.557Z,19.37
2018-11-04T04:13:36.521Z,18.89
2018-11-04T04:14:36.487Z,19.08
2018-11-04T04:15:36.457Z,18.98
2018-11-04T04:16:36.422Z,18.79
2018-11-04T04:17:36.390Z,17.27
2018-11-04T04:18:36.358Z,18.79
2018-11-04T04:19:36.325Z,18.32
2018-11-04T04:20:36.294Z,17.94
2018-11-04T04:21:36.259Z,18.13
2018-11-04T04:22:36.228Z,18.23
2018-11-04T04:23:36.193Z,17.75
2018-11-04T04:24:36.165Z,17.47
2018-11-04T04:25:36.128Z,17.27
2018-11-04T04:26:36.120Z,18.04
2018-11-04T04:27:36.063Z,17.94
2018-11-04T04:28:36.030Z,17.27
2018-11-04T04:29:35.999Z,17.47
2018-11-04T04:30:35.967Z,16.99
2018-11-04T04:31:35.934Z,17.08
2018-11-04T04:32:35.901Z,17.37
2018-11-04T04:33:35.868Z,16.33
2018-11-04T04:34:35.835Z,16.33
2018-11-04T04:35:35.802Z,16.33
2018-11-04T04:36:35.772Z,16.23
2018-11-04T04:37:35.737Z,16.23
2018-11-04T04:38:35.706Z,15.37
2018-11-04T04:39:35.673Z,14.62
2018-11-04T04:40:35.640Z,14.71
2018-11-04T04:41:35.609Z,15.19
2018-11-04T04:42:35.576Z,15.19
2018-11-04T04:43:35.543Z,15.28
2018-11-04T04:44:35.511Z,15.28
2018-11-04T04:45:35.478Z,14.81
2018-11-04T04:46:35.444Z,14.62
2018-11-04T04:47:35.417Z,13.57
2018-11-04T04:48:35.381Z,13.00
2018-11-04T04:49:35.349Z,12.53
2018-11-04T04:50:35.317Z,12.43
2018-11-04T04:51:35.282Z,11.96
2018-11-04T04:52:35.255Z,11.58
2018-11-04T04:53:35.218Z,11.87
2018-11-04T04:54:35.187Z,11.58
2018-11-04T04:55:35.154Z,10.72
2018-11-04T04:56:35.120Z,10.82
2018-11-04T04:57:35.089Z,10.25
2018-11-04T04:58:35.056Z,10.06
2018-11-04T04:59:35.023Z,9.97
2018-11-04T05:00:34.992Z,9.49
2018-11-04T05:01:34.959Z,9.11
2018-11-04T05:02:34.926Z,9.01
2018-11-04T05:03:34.893Z,9.49
2018-11-04T05:04:34.861Z,9.49
2018-11-04T05:05:34.830Z,9.11
2018-11-04T05:06:34.830Z,9.11
2018-11-04T05:07:34.763Z,8.73
2018-11-04T05:08:34.732Z,8.92
2018-11-04T05:09:34.705Z,8.92
2018-11-04T05:10:34.666Z,8.26
2018-11-04T05:11:34.633Z,8.07
2018-11-04T05:12:34.603Z,7.97
2018-11-04T05:13:34.571Z,8.35
2018-11-04T05:14:34.539Z,7.88
2018-11-04T05:15:34.505Z,8.07
2018-11-04T05:16:34.473Z,8.35
2018-11-04T05:17:34.440Z,8.16
2018-11-04T05:18:34.408Z,8.16
2018-11-04T05:19:34.374Z,7.68
2018-11-04T05:20:34.343Z,7.40
2018-11-04T05:21:34.312Z,6.83
2018-11-04T05:22:34.279Z,6.74
2018-11-04T05:23:34.246Z,6.26
2018-11-04T05:24:34.215Z,6.17
2018-11-04T05:25:34.184Z,6.17
2018-11-04T05:26:34.149Z,6.17
2018-11-04T05:27:34.116Z,6.07
2018-11-04T05:28:34.086Z,6.17
2018-11-04T05:29:34.053Z,5.79
2018-11-04T05:30:34.023Z,5.41
2018-11-04T05:31:33.988Z,5.69
2018-11-04T05:32:33.956Z,5.41
2018-11-04T05:33:33.924Z,5.88
2018-11-04T05:34:33.890Z,5.79
2018-11-04T05:35:33.858Z,5.88
2018-11-04T05:36:33.828Z,5.88
2018-11-04T05:37:33.795Z,5.98
2018-11-04T05:38:33.762Z,5.32
2018-11-04T05:39:33.729Z,5.41
2018-11-04T05:40:33.698Z,5.60
2018-11-04T05:41:33.666Z,5.60
2018-11-04T05:42:33.634Z,5.69
2018-11-04T05:43:33.607Z,4.84
2018-11-04T05:44:33.568Z,4.27
2018-11-04T05:45:33.540Z,4.36
2018-11-04T05:46:33.503Z,4.55
2018-11-04T05:47:33.474Z,4.36
2018-11-04T05:48:33.443Z,3.99
2018-11-04T05:49:33.408Z,3.89
2018-11-04T05:50:33.378Z,4.08
2018-11-04T05:51:33.345Z,3.51
2018-11-04T05:52:33.318Z,3.89
2018-11-04T05:53:33.280Z,3.22
2018-11-04T05:54:33.247Z,3.03
2018-11-04T05:55:33.215Z,3.03
2018-11-04T05:56:33.183Z,3.13
2018-11-04T05:57:33.152Z,3.22
2018-11-04T05:58:33.117Z,3.51
2018-11-04T05:59:33.085Z,3.32
2018-11-04T06:00:33.054Z,3.13
2018-11-04T06:01:40.438Z,3.41
2018-11-04T06:03:29.220Z,2.75
2018-11-04T06:04:26.080Z,2.84
2018-11-04T06:06:18.901Z,2.84
2018-11-04T06:07:19.480Z,2.37
2018-11-04T06:09:11.643Z,2.09
2018-11-04T06:10:11.604Z,2.47
2018-11-04T06:12:04.428Z,1.90
2018-11-04T06:13:04.370Z,1.80
2018-11-04T06:14:57.168Z,1.80
2018-11-04T06:15:57.131Z,2.09
2018-11-04T06:17:50.461Z,2.09
2018-11-04T06:18:50.393Z,1.80
2018-11-04T06:20:43.488Z,2.18
2018-11-04T06:21:43.449Z,1.90
2018-11-04T06:23:36.268Z,1.70
2018-11-04T06:24:36.212Z,2.28
2018-11-04T06:26:29.033Z,2.37
2018-11-04T06:27:28.976Z,2.66
2018-11-04T06:29:21.776Z,2.66
2018-11-04T06:30:21.745Z,2.75
2018-11-04T06:32:14.557Z,3.13
2018-11-04T06:33:14.506Z,3.32
2018-11-04T06:35:07.308Z,3.22
2018-11-04T06:36:07.269Z,3.03
2018-11-04T06:38:00.384Z,2.47
2018-11-04T06:39:00.325Z,3.03
2018-11-04T06:40:53.484Z,3.32
2018-11-04T06:41:53.383Z,3.42
2018-11-04T06:43:46.475Z,3.89
2018-11-04T06:44:46.440Z,3.99
2018-11-04T06:46:39.262Z,4.27
2018-11-04T06:47:39.282Z,4.56
2018-11-04T06:49:32.007Z,4.75
2018-11-04T06:50:31.968Z,4.94
2018-11-04T06:52:25.148Z,5.60
2018-11-04T06:53:25.081Z,7.03
2018-11-04T06:55:17.882Z,6.93
2018-11-04T06:56:17.846Z,8.07
2018-11-04T06:58:10.669Z,8.92
2018-11-04T06:59:10.611Z,8.83
2018-11-04T07:01:03.453Z,10.06
2018-11-04T07:02:03.375Z,10.16
2018-11-04T07:03:03.344Z,10.06
2018-11-04T07:04:03.315Z,10.73
2018-11-04T07:05:03.284Z,11.02
2018-11-04T07:06:03.248Z,10.73
2018-11-04T07:07:03.218Z,11.11
2018-11-04T07:08:03.186Z,11.49
2018-11-04T07:09:03.195Z,11.69
2018-11-04T07:10:03.124Z,12.82
2018-11-04T07:11:03.091Z,12.92
2018-11-04T07:12:03.060Z,12.82
2018-11-04T07:13:03.038Z,13.40
2018-11-04T07:14:03.003Z,13.59
2018-11-04T07:15:02.966Z,13.59
2018-11-04T07:16:02.934Z,13.49
2018-11-04T07:17:02.903Z,13.96
2018-11-04T07:18:02.872Z,14.44
2018-11-04T07:19:02.840Z,14.25
2018-11-04T07:20:02.904Z,15.11
2018-11-04T07:21:02.777Z,15.77
2018-11-04T07:22:02.748Z,16.06
2018-11-04T07:23:02.717Z,16.44
2018-11-04T07:24:02.684Z,16.91
2018-11-04T07:25:02.652Z,16.91
2018-11-04T07:26:02.621Z,16.82
2018-11-04T07:27:02.590Z,16.82
2018-11-04T07:28:02.559Z,17.29
2018-11-04T07:29:02.529Z,17.68
2018-11-04T07:30:02.500Z,17.77
2018-11-04T07:31:02.464Z,17.39
2018-11-04T07:32:02.510Z,17.11
2018-11-04T07:33:02.404Z,17.21
2018-11-04T07:34:02.371Z,17.29
2018-11-04T07:35:02.344Z,18.26
2018-11-04T07:36:02.319Z,17.68
2018-11-04T07:37:02.279Z,17.97
2018-11-04T07:38:02.248Z,19.01
2018-11-04T07:39:02.218Z,18.54
2018-11-04T07:40:02.194Z,19.01
2018-11-04T07:41:02.157Z,18.92
2018-11-04T07:42:02.125Z,20.34
2018-11-04T07:43:02.094Z,21.11
2018-11-04T07:44:02.078Z,20.44
2018-11-04T07:45:02.032Z,20.63
2018-11-04T07:46:02.003Z,20.34
2018-11-04T07:47:01.970Z,21.11
2018-11-04T07:48:01.945Z,21.01
2018-11-04T07:49:01.912Z,20.53
2018-11-04T07:50:01.876Z,20.63
2018-11-04T07:51:01.848Z,19.96
2018-11-04T07:52:01.818Z,19.39
2018-11-04T07:53:01.786Z,19.49
2018-11-04T07:54:01.755Z,19.30
2018-11-04T07:55:01.724Z,19.96
2018-11-04T07:56:01.693Z,19.96
2018-11-04T07:57:01.744Z,19.39
2018-11-04T07:58:01.632Z,19.49
2018-11-04T07:59:01.602Z,19.30
2018-11-04T08:00:01.573Z,19.30
2018-11-04T08:01:01.663Z,18.06
2018-11-04T08:02:01.509Z,19.39
2018-11-04T08:03:01.480Z,18.73
2018-11-04T08:04:01.525Z,18.16
2018-11-04T08:05:01.416Z,18.73
2018-11-04T08:06:01.386Z,19.30
2018-11-04T08:07:01.354Z,21.30
2018-11-04T08:08:01.325Z,21.48
2018-11-04T08:09:01.299Z,21.48
2018-11-04T08:10:01.262Z,22.81
2018-11-04T08:11:01.236Z,23.00
2018-11-04T08:12:01.201Z,23.10
2018-11-04T08:13:01.179Z,23.48
2018-11-04T08:14:01.142Z,24.07
2018-11-04T08:15:01.112Z,25.21
2018-11-04T08:16:01.079Z,25.40
2018-11-04T08:17:01.047Z,24.44
2018-11-04T08:18:01.021Z,24.35
2018-11-04T08:19:00.988Z,24.44
2018-11-04T08:20:00.957Z,24.24
2018-11-04T08:21:00.928Z,24.35
2018-11-04T08:22:00.896Z,25.96
2018-11-04T08:23:00.865Z,26.54
2018-11-04T08:24:00.837Z,27.68
2018-11-04T08:25:00.807Z,27.49
2018-11-04T08:26:00.777Z,27.58
2018-11-04T08:27:00.744Z,27.39
2018-11-04T08:28:00.717Z,28.53
2018-11-04T08:29:00.682Z,28.34
2018-11-04T08:30:00.651Z,28.82
2018-11-04T08:31:00.621Z,27.97
2018-11-04T08:32:00.592Z,28.06
2018-11-04T08:33:00.566Z,28.25
2018-11-04T08:34:00.532Z,27.30
2018-11-04T08:35:01.028Z,27.87
2018-11-04T08:36:00.469Z,29.68
2018-11-04T08:37:00.440Z,31.39
2018-11-04T08:38:00.410Z,31.01
2018-11-04T08:39:00.379Z,29.96
2018-11-04T08:40:00.502Z,30.06
2018-11-04T08:41:00.319Z,29.68
2018-11-04T08:42:00.289Z,29.58
2018-11-04T08:43:00.261Z,29.68
2018-11-04T08:44:00.233Z,30.25
2018-11-04T08:45:00.201Z,29.30
2018-11-04T08:46:00.172Z,28.92
2018-11-04T08:47:00.139Z,29.11
2018-11-04T08:48:00.110Z,29.39
2018-11-04T08:49:00.080Z,29.20
2018-11-04T08:50:00.049Z,29.49
2018-11-04T08:51:00.019Z,28.16
2018-11-04T08:51:59.991Z,28.55
2018-11-04T08:53:00.526Z,28.55
2018-11-04T08:53:59.927Z,29.03
2018-11-04T08:54:59.898Z,27.98
2018-11-04T08:55:59.869Z,27.20
2018-11-04T08:56:59.840Z,27.60
2018-11-04T08:57:59.809Z,27.31
2018-11-04T08:58:59.779Z,27.31
2018-11-04T09:00:00.573Z,27.31
2018-11-04T09:00:59.719Z,28.27
2018-11-04T09:01:59.689Z,28.45
2018-11-04T09:02:59.660Z,29.88
2018-11-04T09:03:59.629Z,30.55
2018-11-04T09:04:59.599Z,29.98
2018-11-04T09:05:59.570Z,30.07
2018-11-04T09:06:59.539Z,29.60
2018-11-04T09:07:59.511Z,28.64
2018-11-04T09:08:59.479Z,29.12
2018-11-04T09:09:59.448Z,28.83
2018-11-04T09:10:59.419Z,29.79
2018-11-04T09:11:59.390Z,29.60
2018-11-04T09:12:59.361Z,29.22
2018-11-04T09:13:59.333Z,29.79
2018-11-04T09:14:59.300Z,29.60
2018-11-04T09:15:59.272Z,29.41
2018-11-04T09:16:59.243Z,28.93
2018-11-04T09:17:59.211Z,29.12
2018-11-04T09:18:59.181Z,28.45
2018-11-04T09:19:59.151Z,27.98
2018-11-04T09:20:59.123Z,26.84
2018-11-04T09:21:59.226Z,26.65
2018-11-04T09:22:59.063Z,26.55
2018-11-04T09:23:59.032Z,27.41
2018-11-04T09:24:59.009Z,27.69
2018-11-04T09:25:58.972Z,27.22
2018-11-04T09:26:58.945Z,27.60
2018-11-04T09:27:58.913Z,28.08
2018-11-04T09:28:58.950Z,27.50
2018-11-04T09:29:58.854Z,26.74
2018-11-04T09:30:58.825Z,27.14
2018-11-04T09:31:58.794Z,26.93
2018-11-04T09:32:58.765Z,28.08
2018-11-04T09:33:58.734Z,27.42
2018-11-04T09:34:58.781Z,27.03
2018-11-04T09:35:58.717Z,27.42
2018-11-04T09:36:58.648Z,28.08
2018-11-04T09:37:58.617Z,26.65
2018-11-04T09:38:58.588Z,25.79
2018-11-04T09:39:58.557Z,24.74
2018-11-04T09:40:58.528Z,24.27
2018-11-04T09:41:58.496Z,24.08
2018-11-04T09:42:58.469Z,23.89
2018-11-04T09:43:58.438Z,24.66
2018-11-04T09:44:58.414Z,25.22
2018-11-04T09:45:58.378Z,25.61
2018-11-04T09:46:58.350Z,24.57
2018-11-04T09:47:58.322Z,24.93
2018-11-04T09:48:58.292Z,24.27
2018-11-04T09:49:58.311Z,24.47
2018-11-04T09:50:58.231Z,24.55
2018-11-04T09:51:58.203Z,24.38
2018-11-04T09:52:58.173Z,24.95
2018-11-04T09:53:58.144Z,25.52
2018-11-04T09:54:58.114Z,24.66
2018-11-04T09:55:58.084Z,23.52
2018-11-04T09:56:58.053Z,23.04
2018-11-04T09:57:58.025Z,24.38
2018-11-04T09:58:57.992Z,24.85
2018-11-04T09:59:57.964Z,24.47
2018-11-04T10:00:57.935Z,22.84
2018-11-04T10:01:58.538Z,22.19
2018-11-04T10:02:57.875Z,22.85
2018-11-04T10:03:57.846Z,22.94
2018-11-04T10:04:57.818Z,23.33
2018-11-04T10:05:57.785Z,24.18
2018-11-04T10:06:57.773Z,23.61
2018-11-04T10:07:57.729Z,23.04
2018-11-04T10:08:57.700Z,23.23
2018-11-04T10:09:57.669Z,23.90
2018-11-04T10:10:57.639Z,24.47
2018-11-04T10:11:57.612Z,23.99
2018-11-04T10:12:57.579Z,24.38
2018-11-04T10:13:57.553Z,24.47
2018-11-04T10:14:57.519Z,24.38
2018-11-04T10:15:57.493Z,23.80
2018-11-04T10:16:57.460Z,24.28
2018-11-04T10:17:57.432Z,24.66
2018-11-04T10:18:57.436Z,24.38
2018-11-04T10:19:57.639Z,22.94
2018-11-04T10:20:57.708Z,23.99
2018-11-04T10:21:57.320Z,24.95
2018-11-04T10:22:57.288Z,24.38
2018-11-04T10:23:57.256Z,23.52
2018-11-04T10:24:57.227Z,21.51
2018-11-04T10:25:57.198Z,21.42
2018-11-04T10:26:57.167Z,20.85
2018-11-04T10:27:57.137Z,20.56
2018-11-04T10:28:57.109Z,20.85
2018-11-04T10:29:57.078Z,22.38
2018-11-04T10:30:57.055Z,21.71
2018-11-04T10:31:57.020Z,21.61
2018-11-04T10:32:56.992Z,21.33
2018-11-04T10:33:56.961Z,21.51
2018-11-04T10:34:56.932Z,20.85
2018-11-04T10:35:56.948Z,20.47
2018-11-04T10:36:56.873Z,20.76
2018-11-04T10:37:56.843Z,20.56
2018-11-04T10:38:56.813Z,19.90
2018-11-04T10:39:56.785Z,19.23
2018-11-04T10:40:56.756Z,18.66
2018-11-04T10:41:56.723Z,18.85
2018-11-04T10:42:56.698Z,18.66
2018-11-04T10:43:56.666Z,18.66
2018-11-04T10:44:56.638Z,19.04
2018-11-04T10:45:56.607Z,18.18
2018-11-04T10:46:56.578Z,17.43
2018-11-04T10:47:56.549Z,17.52
2018-11-04T10:48:56.519Z,17.23
2018-11-04T10:49:56.552Z,17.99
2018-11-04T10:50:56.460Z,17.04
2018-11-04T10:51:56.431Z,16.09
2018-11-04T10:52:56.401Z,16.00
2018-11-04T10:53:56.371Z,16.28
2018-11-04T10:54:56.341Z,16.00
2018-11-04T10:55:56.414Z,16.19
2018-11-04T10:56:56.281Z,16.38
2018-11-04T10:57:56.250Z,15.90
2018-11-04T10:58:56.224Z,15.42
2018-11-04T10:59:56.194Z,14.76
2018-11-04T11:00:56.165Z,14.18
2018-11-04T11:01:56.135Z,14.95
2018-11-04T11:02:56.106Z,14.95
2018-11-04T11:03:56.076Z,14.85
2018-11-04T11:04:56.049Z,15.71
2018-11-04T11:05:56.016Z,16.19
2018-11-04T11:06:56.548Z,16.66
2018-11-04T11:07:55.956Z,16.38
2018-11-04T11:08:55.931Z,16.66
2018-11-04T11:09:55.898Z,17.61
2018-11-04T11:10:55.906Z,17.99
2018-11-04T11:11:55.840Z,18.57
2018-11-04T11:12:55.810Z,18.57
2018-11-04T11:13:55.784Z,17.99
2018-11-04T11:14:55.749Z,17.14
2018-11-04T11:15:55.719Z,17.90
2018-11-04T11:16:55.692Z,18.18
2018-11-04T11:17:55.662Z,17.71
2018-11-04T11:18:55.633Z,17.99
2018-11-04T11:19:55.605Z,16.85
2018-11-04T11:20:55.574Z,16.85
2018-11-04T11:21:55.545Z,15.61
2018-11-04T11:22:55.695Z,15.52
2018-11-04T11:23:55.485Z,15.23
2018-11-04T11:24:55.455Z,13.81
2018-11-04T11:25:55.431Z,13.90
2018-11-04T11:26:55.399Z,13.42
2018-11-04T11:27:55.369Z,13.62
2018-11-04T11:28:55.338Z,12.85
2018-11-04T11:29:55.364Z,12.66
2018-11-04T11:30:55.280Z,13.04
2018-11-04T11:31:55.250Z,13.71
2018-11-04T11:32:55.223Z,13.81
2018-11-04T11:33:55.192Z,13.42
2018-11-04T11:34:55.161Z,13.71
2018-11-04T11:35:55.128Z,14.19
2018-11-04T11:36:55.100Z,14.39
2018-11-04T11:37:55.216Z,14.67
2018-11-04T11:38:55.041Z,16.86
2018-11-04T11:39:55.015Z,15.72
2018-11-04T11:40:54.995Z,15.72
2018-11-04T11:41:54.954Z,15.53
2018-11-04T11:42:54.924Z,15.72
2018-11-04T11:43:54.896Z,15.53
2018-11-04T11:44:54.936Z,14.58
2018-11-04T11:45:54.835Z,14.67
2018-11-04T11:46:54.807Z,13.81
2018-11-04T11:47:54.781Z,13.90
2018-11-04T11:48:54.748Z,13.62
2018-11-04T11:49:54.718Z,13.53
2018-11-04T11:50:54.689Z,13.71
2018-11-04T11:51:54.663Z,13.81
2018-11-04T11:52:54.631Z,13.81
2018-11-04T11:53:54.600Z,14.58
2018-11-04T11:54:54.571Z,13.71
2018-11-04T11:55:54.542Z,14.00
2018-11-04T11:56:54.513Z,13.34
2018-11-04T11:57:54.482Z,14.10
2018-11-04T11:58:54.452Z,14.58
2018-11-04T11:59:54.424Z,14.00
2018-11-04T12:00:54.400Z,12.95
2018-11-04T12:01:54.364Z,12.76
2018-11-04T12:02:54.336Z,12.67
2018-11-04T12:03:54.306Z,12.76
2018-11-04T12:04:54.276Z,12.19
2018-11-04T12:05:54.247Z,11.81
2018-11-04T12:06:54.220Z,11.43
2018-11-04T12:07:54.190Z,11.91
2018-11-04T12:08:54.160Z,12.10
2018-11-04T12:09:54.129Z,11.62
2018-11-04T12:10:54.101Z,11.81
2018-11-04T12:11:54.071Z,11.52
2018-11-04T12:12:54.043Z,12.10
2018-11-04T12:13:54.012Z,11.91
2018-11-04T12:14:53.987Z,11.43
2018-11-04T12:15:53.953Z,11.33
2018-11-04T12:16:53.929Z,11.91
2018-11-04T12:17:53.989Z,12.00
2018-11-04T12:18:53.866Z,12.00
2018-11-04T12:19:53.839Z,11.52
2018-11-04T12:20:53.810Z,11.24
2018-11-04T12:21:53.778Z,11.24
2018-11-04T12:22:53.748Z,11.24
2018-11-04T12:23:53.755Z,10.28
2018-11-04T12:24:53.689Z,9.62
2018-11-04T12:25:53.660Z,9.43
2018-11-04T12:26:53.699Z,9.05
2018-11-04T12:27:53.601Z,8.38
2018-11-04T12:28:53.573Z,8.00
2018-11-04T12:29:53.543Z,8.57
2018-11-04T12:30:54.059Z,8.38
2018-11-04T12:31:53.484Z,9.05
2018-11-04T12:32:53.454Z,8.76
2018-11-04T12:33:53.426Z,8.76
2018-11-04T12:34:53.399Z,9.72
2018-11-04T12:35:53.369Z,9.72
2018-11-04T12:36:53.340Z,10.10
2018-11-04T12:37:53.309Z,10.96
2018-11-04T12:38:53.279Z,10.38
2018-11-04T12:39:53.255Z,10.57
2018-11-04T12:40:53.221Z,10.96
2018-11-04T12:41:53.190Z,10.57
2018-11-04T12:42:53.163Z,10.67
2018-11-04T12:43:53.133Z,11.05
2018-11-04T12:44:53.103Z,11.05
2018-11-04T12:45:53.101Z,11.05
2018-11-04T12:46:53.045Z,10.48
2018-11-04T12:47:53.018Z,10.19
2018-11-04T12:48:52.987Z,9.81
2018-11-04T12:49:52.957Z,9.62
2018-11-04T12:50:52.929Z,9.62
2018-11-04T12:51:52.902Z,9.81
2018-11-04T12:52:52.871Z,9.81
2018-11-04T12:53:52.841Z,9.62
2018-11-04T12:54:52.810Z,9.72
2018-11-04T12:55:52.784Z,8.95
2018-11-04T12:56:52.753Z,8.57
2018-11-04T12:57:52.722Z,9.05
2018-11-04T12:58:52.695Z,8.29
2018-11-04T12:59:52.668Z,7.43
2018-11-04T13:00:52.636Z,7.53
2018-11-04T13:01:52.651Z,7.53
2018-11-04T13:02:52.576Z,7.43
2018-11-04T13:03:52.549Z,6.95
2018-11-04T13:04:52.522Z,6.57
2018-11-04T13:05:52.488Z,6.67
2018-11-04T13:06:52.463Z,5.81
2018-11-04T13:07:52.432Z,5.62
2018-11-04T13:08:52.402Z,5.52
2018-11-04T13:09:52.371Z,5.14
2018-11-04T13:10:52.344Z,5.05
2018-11-04T13:11:52.320Z,5.24
2018-11-04T13:12:52.286Z,5.14
2018-11-04T13:13:52.259Z,4.95
2018-11-04T13:14:52.226Z,5.81
2018-11-04T13:15:52.197Z,6.00
2018-11-04T13:16:52.165Z,6.10
2018-11-04T13:17:52.137Z,7.24
2018-11-04T13:18:52.111Z,6.95
2018-11-04T13:19:52.079Z,7.53
2018-11-04T13:20:52.048Z,8.00
2018-11-04T13:21:52.039Z,8.67
2018-11-04T13:22:51.990Z,8.76
2018-11-04T13:23:51.963Z,9.05